Time;durP1;ratioP1;P1;durP2;ratioP2;P2;SDS_P1;SDS_P2;PMS_P1;PMS_P2;Temp;Humidity;BMP_temperature;BMP_pressure;BME280_temperature;BME280_humidity;BME280_pressure;Samples;Min_cycle;Max_cycle;Signal;HPM_P1;HPM_P2
2022/08/09 00:00:08;;;;;;;6.20;2.47;;;;;;;20.47;80.59;102220.00;5040669;28;20068;-74
2022/08/09 00:02:38;;;;;;;5.28;2.53;;;;;;;20.49;79.49;102216.78;5043249;28;20056;-77
2022/08/09 00:05:15;;;;;;;9.50;2.65;;;;;;;20.45;79.94;102219.63;5049908;28;20165;-77
2022/08/09 00:08:02;;;;;;;6.72;2.70;;;;;;;20.42;80.96;102212.09;5042262;28;20064;-75
2022/08/09 00:10:36;;;;;;;4.50;2.40;;;;;;;20.41;82.32;102216.09;5047759;28;20213;-76
2022/08/09 00:13:05;;;;;;;8.02;2.75;;;;;;;20.38;81.11;102212.13;5046657;28;20131;-75
2022/08/09 00:15:43;;;;;;;6.95;2.85;;;;;;;20.34;81.04;102211.41;5047988;28;20131;-75
2022/08/09 00:18:32;;;;;;;11.23;2.83;;;;;;;20.30;81.57;102213.50;5043334;28;20052;-77
2022/08/09 00:21:03;;;;;;;4.75;2.60;;;;;;;20.23;81.09;102210.81;5041590;28;20912;-77
2022/08/09 00:23:34;;;;;;;7.53;2.58;;;;;;;20.25;82.30;102213.97;5046927;28;20121;-79
2022/08/09 00:26:21;;;;;;;8.30;3.00;;;;;;;20.24;81.82;102212.38;5047877;28;20139;-78
2022/08/09 00:29:01;;;;;;;5.68;2.67;;;;;;;20.22;82.82;102217.63;5055739;28;20095;-76
2022/08/09 00:31:29;;;;;;;8.57;2.50;;;;;;;20.17;82.75;102218.13;5050024;28;20052;-79
2022/08/09 00:34:15;;;;;;;6.10;2.60;;;;;;;20.15;83.63;102217.75;5042019;28;20071;-78
2022/08/09 00:36:45;;;;;;;8.00;2.75;;;;;;;20.13;83.57;102210.97;5052196;28;20080;-75
2022/08/09 00:39:12;;;;;;;10.50;3.00;;;;;;;20.10;84.44;102212.59;5049201;28;20584;-78
2022/08/09 00:41:58;;;;;;;5.85;2.67;;;;;;;20.07;84.61;102207.03;5048496;28;20048;-76
2022/08/09 00:44:45;;;;;;;5.35;2.70;;;;;;;19.98;85.52;102199.13;5048991;28;20064;-75
2022/08/09 00:47:12;;;;;;;6.97;2.60;;;;;;;20.02;85.34;102201.91;5052826;28;20059;-76
2022/08/09 00:49:41;;;;;;;7.53;2.97;;;;;;;19.95;86.61;102202.78;5040190;28;20812;-76
2022/08/09 00:52:09;;;;;;;7.88;2.80;;;;;;;19.91;86.37;102199.25;5047347;28;20626;-75
2022/08/09 00:54:44;;;;;;;10.27;2.97;;;;;;;19.87;87.66;102204.16;5049249;28;20056;-78
2022/08/09 00:57:11;;;;;;;8.85;3.05;;;;;;;19.83;87.10;102199.78;5044953;28;20148;-78
2022/08/09 00:59:42;;;;;;;7.07;3.13;;;;;;;19.84;87.70;102209.81;5056127;28;20048;-77
2022/08/09 01:02:20;;;;;;;14.52;3.80;;;;;;;19.84;87.48;102209.81;5044486;28;20777;-80
2022/08/09 01:05:08;;;;;;;7.43;2.53;;;;;;;19.77;87.94;102209.91;5053290;28;20052;-77
2022/08/09 01:08:05;;;;;;;7.38;3.20;;;;;;;19.74;89.02;102217.19;5049468;28;20121;-77
2022/08/09 01:10:51;;;;;;;4.90;2.63;;;;;;;19.70;90.09;102210.81;5046045;28;20061;-78
2022/08/09 01:13:29;;;;;;;8.02;3.15;;;;;;;19.69;88.91;102214.06;5049899;28;20052;-78
2022/08/09 01:16:10;;;;;;;7.75;3.40;;;;;;;19.62;89.99;102212.16;5047970;28;20941;-77
2022/08/09 01:18:44;;;;;;;10.50;3.20;;;;;;;19.63;89.73;102213.75;5051099;28;20202;-77
2022/08/09 01:21:42;;;;;;;9.57;3.33;;;;;;;19.62;90.60;102217.78;5045168;28;20142;-77
2022/08/09 01:24:36;;;;;;;6.90;3.40;;;;;;;19.59;91.38;102227.03;5043428;28;20151;-81
2022/08/09 01:27:10;;;;;;;7.30;3.08;;;;;;;19.57;91.60;102218.25;5049352;28;20124;-77
2022/08/09 01:29:43;;;;;;;6.93;2.90;;;;;;;19.57;91.05;102223.03;5046966;28;20821;-77
2022/08/09 01:32:26;;;;;;;7.10;2.83;;;;;;;19.54;91.41;102221.13;5038831;28;20153;-79
2022/08/09 01:35:24;;;;;;;11.77;3.42;;;;;;;19.48;93.30;102217.19;5050493;28;20122;-76
2022/08/09 01:38:07;;;;;;;6.22;2.83;;;;;;;19.43;91.98;102229.66;5039568;28;20113;-76
2022/08/09 01:40:45;;;;;;;4.75;2.75;;;;;;;19.38;92.18;102209.69;5049778;28;20902;-76
2022/08/09 01:43:33;;;;;;;9.32;3.45;;;;;;;19.38;91.66;102221.72;5048143;28;20056;-74
2022/08/09 01:46:23;;;;;;;7.53;3.42;;;;;;;19.33;93.88;102212.97;5061861;28;20057;-73
2022/08/09 01:49:00;;;;;;;11.10;3.30;;;;;;;19.33;92.94;102216.56;5067335;28;20060;-77
2022/08/09 01:51:39;;;;;;;5.50;2.90;;;;;;;19.32;95.07;102214.19;5068595;28;20467;-76
2022/08/09 01:54:10;;;;;;;8.18;3.28;;;;;;;19.30;94.53;102211.81;5065667;28;20492;-74
2022/08/09 01:56:40;;;;;;;6.75;3.45;;;;;;;19.24;95.00;102210.63;5056607;28;20055;-73
2022/08/09 01:59:16;;;;;;;12.60;3.17;;;;;;;19.21;96.35;102211.50;5068783;28;20076;-77
2022/08/09 02:01:47;;;;;;;6.50;2.95;;;;;;;19.20;96.94;102226.72;5068121;28;20143;-73
2022/08/09 02:04:28;;;;;;;9.55;3.00;;;;;;;19.17;96.76;102210.72;5066767;28;20127;-75
2022/08/09 02:07:14;;;;;;;7.15;3.35;;;;;;;19.11;96.78;102218.03;5067391;28;20153;-71
2022/08/09 02:10:08;;;;;;;11.55;4.70;;;;;;;19.10;98.00;102222.03;5056467;28;20147;-74
2022/08/09 02:12:36;;;;;;;7.53;2.90;;;;;;;19.07;97.95;102220.06;5068832;28;20398;-76
2022/08/09 02:15:06;;;;;;;8.85;3.70;;;;;;;19.01;98.58;102218.16;5066476;28;20072;-76
2022/08/09 02:17:39;;;;;;;7.35;3.13;;;;;;;18.99;98.97;102218.59;5064017;28;20053;-73
2022/08/09 02:20:28;;;;;;;11.60;3.70;;;;;;;19.02;98.96;102208.53;5063288;28;20505;-77
2022/08/09 02:23:11;;;;;;;13.95;3.30;;;;;;;18.97;99.14;102212.59;5067832;28;20076;-77
2022/08/09 02:25:40;;;;;;;8.00;3.22;;;;;;;18.96;99.58;102219.41;5063478;28;20250;-75
2022/08/09 02:28:22;;;;;;;13.30;3.75;;;;;;;18.94;100.00;102210.66;5057215;28;20076;-76
2022/08/09 02:30:56;;;;;;;8.77;3.53;;;;;;;18.90;100.00;102212.66;5063061;28;20051;-76
2022/08/09 02:33:25;;;;;;;7.57;3.20;;;;;;;18.87;100.00;102213.50;5067006;28;20047;-76
2022/08/09 02:36:20;;;;;;;8.25;3.10;;;;;;;18.84;100.00;102211.56;5068849;28;20053;-77
2022/08/09 02:38:54;;;;;;;8.48;3.47;;;;;;;18.84;100.00;102214.38;5060166;28;20131;-75
2022/08/09 02:41:29;;;;;;;8.10;3.33;;;;;;;18.83;100.00;102217.59;5067229;28;20139;-75
2022/08/09 02:44:01;;;;;;;8.25;3.95;;;;;;;18.81;100.00;102220.81;5065117;28;20143;-73
2022/08/09 02:46:50;;;;;;;7.07;3.00;;;;;;;18.73;100.00;102208.06;5062939;28;20422;-77
2022/08/09 02:49:18;;;;;;;9.02;3.60;;;;;;;18.76;100.00;102212.84;5067451;28;20079;-75
2022/08/09 02:51:56;;;;;;;10.00;3.40;;;;;;;18.75;100.00;102210.44;5064830;28;20493;-77
2022/08/09 02:54:26;;;;;;;6.95;3.50;;;;;;;18.73;100.00;102213.66;5059427;28;20102;-78
2022/08/09 02:57:00;;;;;;;11.70;3.45;;;;;;;18.69;100.00;102207.31;5068753;28;20054;-76
2022/08/09 02:59:41;;;;;;;9.48;4.00;;;;;;;18.70;100.00;102202.50;5067952;28;20055;-76
2022/08/09 03:02:29;;;;;;;10.18;3.75;;;;;;;18.68;100.00;102202.91;5061786;28;20052;-75
2022/08/09 03:04:59;;;;;;;8.45;3.40;;;;;;;18.64;100.00;102207.78;5064111;28;20118;-77
2022/08/09 03:07:27;;;;;;;7.70;3.60;;;;;;;18.63;100.00;102205.38;5068230;28;20156;-72
2022/08/09 03:09:55;;;;;;;10.63;3.60;;;;;;;18.62;100.00;102203.78;5067434;28;20060;-74
2022/08/09 03:12:28;;;;;;;8.60;3.50;;;;;;;18.60;100.00;102195.81;5063366;28;20120;-75
2022/08/09 03:14:56;;;;;;;10.23;3.65;;;;;;;18.63;100.00;102206.16;5059165;28;20088;-74
2022/08/09 03:17:24;;;;;;;7.95;3.28;;;;;;;18.59;100.00;102196.22;5068292;28;20102;-76
2022/08/09 03:19:57;;;;;;;7.80;3.40;;;;;;;18.56;100.00;102200.63;5066723;28;20060;-75
2022/08/09 03:22:33;;;;;;;8.88;3.80;;;;;;;18.52;100.00;102199.88;5066516;28;20521;-73
2022/08/09 03:25:10;;;;;;;9.00;3.90;;;;;;;18.49;100.00;102200.72;5066801;28;20044;-75
2022/08/09 03:27:59;;;;;;;9.95;3.60;;;;;;;18.50;100.00;102210.72;5066068;28;20053;-76
2022/08/09 03:30:31;;;;;;;12.90;4.03;;;;;;;18.48;100.00;102201.94;5060966;28;20072;-76
2022/08/09 03:33:07;;;;;;;8.57;3.90;;;;;;;18.47;100.00;102210.75;5060187;28;20059;-76
2022/08/09 03:35:49;;;;;;;8.55;4.15;;;;;;;18.40;100.00;102210.81;5064790;28;20051;-76
2022/08/09 03:38:38;;;;;;;10.40;4.03;;;;;;;18.42;100.00;102202.81;5059599;28;20044;-75
2022/08/09 03:41:12;;;;;;;9.52;3.50;;;;;;;18.38;100.00;102205.63;5062657;28;20048;-76
2022/08/09 03:43:42;;;;;;;9.77;4.30;;;;;;;18.34;100.00;102210.44;5068567;28;20127;-73
2022/08/09 03:46:29;;;;;;;11.07;4.53;;;;;;;18.33;100.00;102211.66;5061556;28;20048;-75
2022/08/09 03:48:59;;;;;;;9.32;4.40;;;;;;;18.31;100.00;102207.66;5067023;28;20060;-75
2022/08/09 03:51:34;;;;;;;15.48;4.25;;;;;;;18.30;100.00;102211.69;5059367;28;20048;-74
2022/08/09 03:54:23;;;;;;;10.75;4.50;;;;;;;18.29;100.00;102212.91;5066754;28;20049;-75
2022/08/09 03:56:56;;;;;;;12.75;4.38;;;;;;;18.22;100.00;102208.16;5064401;28;20045;-76
2022/08/09 03:59:23;;;;;;;9.07;4.15;;;;;;;18.22;100.00;102204.56;5067057;28;20420;-75
2022/08/09 04:02:10;;;;;;;9.95;4.38;;;;;;;18.20;100.00;102213.38;5061245;28;20057;-74
2022/08/09 04:04:39;;;;;;;7.90;3.80;;;;;;;18.21;100.00;102216.97;5066785;28;20056;-76
2022/08/09 04:07:11;;;;;;;9.50;3.92;;;;;;;18.16;100.00;102223.84;5065066;28;20082;-74
2022/08/09 04:09:40;;;;;;;10.77;4.45;;;;;;;18.12;100.00;102216.66;5068606;28;20060;-75
2022/08/09 04:12:15;;;;;;;12.82;3.95;;;;;;;18.14;100.00;102214.22;5064883;28;20102;-71
2022/08/09 04:14:57;;;;;;;10.43;4.03;;;;;;;18.13;100.00;102219.06;5061419;28;20052;-75
2022/08/09 04:17:37;;;;;;;11.30;4.65;;;;;;;18.12;100.00;102217.44;5061078;28;20052;-75
2022/08/09 04:20:10;;;;;;;10.88;4.40;;;;;;;18.11;100.00;102221.47;5056925;28;20081;-77
2022/08/09 04:22:39;;;;;;;13.07;4.25;;;;;;;18.08;100.00;102222.28;5061449;28;20063;-74
2022/08/09 04:25:10;;;;;;;13.85;4.43;;;;;;;18.10;100.00;102233.88;5076147;28;20398;-75
2022/08/09 04:27:41;;;;;;;13.07;3.92;;;;;;;18.09;100.00;102234.28;5060657;28;20053;-73
2022/08/09 04:30:16;;;;;;;15.88;4.93;;;;;;;18.04;100.00;102232.72;5056191;28;20072;-75
2022/08/09 04:32:46;;;;;;;10.55;4.72;;;;;;;18.02;100.00;102233.13;5063739;28;20055;-74
2022/08/09 04:35:13;;;;;;;10.77;4.40;;;;;;;18.02;100.00;102235.94;5063160;28;20382;-75
2022/08/09 04:37:41;;;;;;;12.23;5.15;;;;;;;18.02;100.00;102234.34;5047900;28;20536;-75
2022/08/09 04:40:13;;;;;;;11.85;4.75;;;;;;;18.04;100.00;102235.53;5047769;28;20535;-76
2022/08/09 04:43:00;;;;;;;12.30;4.82;;;;;;;18.04;100.00;102238.31;5064239;28;20075;-74
2022/08/09 04:45:26;;;;;;;11.50;4.88;;;;;;;18.04;100.00;102246.72;5065029;28;20049;-74
2022/08/09 04:47:58;;;;;;;12.32;5.15;;;;;;;18.06;100.00;102240.72;5062603;28;20118;-74
2022/08/09 04:50:33;;;;;;;10.55;4.47;;;;;;;18.08;100.00;102244.69;5062282;28;20057;-74
2022/08/09 04:53:06;;;;;;;13.73;5.03;;;;;;;18.08;100.00;102241.09;5058651;28;20052;-73
2022/08/09 04:55:40;;;;;;;11.23;5.07;;;;;;;18.07;100.00;102242.28;5061743;28;20425;-74
2022/08/09 04:58:26;;;;;;;12.15;4.82;;;;;;;18.07;100.00;102242.28;5059174;28;20394;-74
2022/08/09 05:00:54;;;;;;;13.43;5.15;;;;;;;18.09;100.00;102239.91;5066728;28;20155;-74
2022/08/09 05:03:22;;;;;;;10.38;4.40;;;;;;;18.13;100.00;102249.88;5065264;28;20063;-73
2022/08/09 05:06:12;;;;;;;10.93;5.05;;;;;;;18.12;100.00;102245.44;5065870;28;20040;-72
2022/08/09 05:08:53;;;;;;;11.95;4.88;;;;;;;18.17;100.00;102255.44;5064757;28;20832;-73
2022/08/09 05:11:26;;;;;;;11.27;5.05;;;;;;;18.17;100.00;102259.03;5066427;28;20041;-73
2022/08/09 05:13:58;;;;;;;16.42;5.60;;;;;;;18.15;100.00;102253.03;5063312;28;20061;-75
2022/08/09 05:16:24;;;;;;;10.00;4.65;;;;;;;18.19;100.00;102261.44;5062908;28;20076;-73
2022/08/09 05:18:57;;;;;;;10.30;4.75;;;;;;;18.23;100.00;102262.19;5069259;28;20139;-72
2022/08/09 05:21:26;;;;;;;13.02;4.85;;;;;;;18.24;100.00;102266.56;5074237;28;20055;-73
2022/08/09 05:24:02;;;;;;;9.57;4.13;;;;;;;18.25;100.00;102268.97;5072108;28;20083;-74
2022/08/09 05:26:30;;;;;;;15.27;5.40;;;;;;;18.30;100.00;102265.72;5069969;28;20056;-73
2022/08/09 05:29:03;;;;;;;10.75;5.00;;;;;;;18.36;100.00;102257.72;5066711;28;20109;-71
2022/08/09 05:31:32;;;;;;;13.65;5.55;;;;;;;18.39;100.00;102260.47;5065749;28;20152;-75
2022/08/09 05:34:14;;;;;;;12.25;5.00;;;;;;;18.46;100.00;102268.81;5069511;28;20690;-73
2022/08/09 05:36:43;;;;;;;12.38;5.32;;;;;;;18.51;100.00;102268.38;5067066;28;20076;-75
2022/08/09 05:39:13;;;;;;;18.65;5.72;;;;;;;18.56;100.00;102265.09;5068220;28;20057;-76
2022/08/09 05:41:55;;;;;;;12.60;5.43;;;;;;;18.67;100.00;102277.03;5067967;28;20063;-74
2022/08/09 05:44:27;;;;;;;17.33;6.15;;;;;;;18.71;100.00;102265.78;5068900;28;20595;-74
2022/08/09 05:46:58;;;;;;;14.43;4.60;;;;;;;18.75;100.00;102267.34;5067755;28;20048;-74
2022/08/09 05:49:25;;;;;;;14.02;4.95;;;;;;;18.78;100.00;102266.50;5059959;28;20052;-69
2022/08/09 05:52:12;;;;;;;12.70;4.65;;;;;;;18.85;100.00;102266.44;5065519;28;20060;-75
2022/08/09 05:54:39;;;;;;;10.50;4.70;;;;;;;18.87;100.00;102266.78;5060964;28;20538;-72
2022/08/09 05:57:06;;;;;;;14.88;5.38;;;;;;;18.95;100.00;102265.53;5054198;28;20052;-71
2022/08/09 05:59:38;;;;;;;12.80;4.45;;;;;;;19.02;100.00;102262.63;5068906;28;20048;-71
2022/08/09 06:02:10;;;;;;;12.43;4.88;;;;;;;19.08;100.00;102268.59;5067869;28;20109;-73
2022/08/09 06:04:42;;;;;;;13.70;5.35;;;;;;;19.13;100.00;102268.13;5067346;28;20059;-73
2022/08/09 06:07:11;;;;;;;18.63;6.10;;;;;;;19.19;100.00;102274.84;5069791;28;20040;-74
2022/08/09 06:09:47;;;;;;;13.98;4.57;;;;;;;19.24;100.00;102274.41;5065699;28;20052;-74
2022/08/09 06:12:29;;;;;;;12.55;5.00;;;;;;;19.32;100.00;102276.75;5062297;28;20053;-76
2022/08/09 06:14:56;;;;;;;11.07;4.72;;;;;;;19.38;100.00;102272.25;5061770;28;20079;-73
2022/08/09 06:17:27;;;;;;;15.52;5.55;;;;;;;19.45;100.00;102276.97;5064280;28;20048;-75
2022/08/09 06:20:06;;;;;;;13.48;4.88;;;;;;;19.49;100.00;102269.28;5063604;28;20235;-73
2022/08/09 06:22:33;;;;;;;16.83;5.38;;;;;;;19.58;100.00;102278.00;5065502;28;20143;-74
2022/08/09 06:25:01;;;;;;;16.27;5.70;;;;;;;19.64;100.00;102276.31;5068770;28;20052;-74
2022/08/09 06:27:27;;;;;;;12.30;5.00;;;;;;;19.67;100.00;102279.06;5066673;28;20186;-74
2022/08/09 06:30:09;;;;;;;11.82;4.85;;;;;;;19.71;100.00;102284.66;5060845;28;20049;-74
2022/08/09 06:32:39;;;;;;;10.43;4.28;;;;;;;19.76;100.00;102279.34;5060610;28;20126;-75
2022/08/09 06:35:26;;;;;;;20.38;5.50;;;;;;;19.77;100.00;102283.75;5064678;28;20059;-75
2022/08/09 06:38:13;;;;;;;14.18;5.63;;;;;;;19.83;100.00;102289.69;5059196;28;20536;-74
2022/08/09 06:40:41;;;;;;;14.63;5.60;;;;;;;19.85;100.00;102287.25;5066525;28;20050;-74
2022/08/09 06:43:08;;;;;;;14.02;5.07;;;;;;;19.91;100.00;102291.97;5066821;28;20501;-74
2022/08/09 06:45:36;;;;;;;11.18;4.90;;;;;;;19.96;100.00;102288.69;5067116;28;20040;-73
2022/08/09 06:48:25;;;;;;;15.80;5.88;;;;;;;20.06;100.00;102290.53;5062675;28;20060;-71
2022/08/09 06:50:58;;;;;;;11.05;4.85;;;;;;;20.13;100.00;102296.09;5067474;28;20497;-73
2022/08/09 06:53:24;;;;;;;11.65;4.72;;;;;;;20.14;100.00;102282.81;5065527;28;20110;-74
2022/08/09 06:55:51;;;;;;;12.63;5.15;;;;;;;20.22;100.00;102299.13;5062493;28;20516;-73
2022/08/09 06:58:20;;;;;;;15.00;5.80;;;;;;;20.27;100.00;102298.66;5063586;28;20048;-75
2022/08/09 07:01:07;;;;;;;16.48;5.15;;;;;;;20.34;100.00;102295.75;5061032;28;20052;-74
2022/08/09 07:03:36;;;;;;;12.52;5.50;;;;;;;20.39;100.00;102292.44;5062882;28;20126;-74
2022/08/09 07:06:17;;;;;;;15.35;5.60;;;;;;;20.44;100.00;102293.97;5067922;28;20515;-74
2022/08/09 07:08:45;;;;;;;12.77;5.95;;;;;;;20.51;100.00;102293.06;5066143;28;20481;-75
2022/08/09 07:11:12;;;;;;;17.33;5.38;;;;;;;20.58;100.00;102290.13;5066120;28;20118;-72
2022/08/09 07:13:51;;;;;;;13.35;6.32;;;;;;;20.68;100.00;102289.94;5066152;28;20139;-72
2022/08/09 07:16:32;;;;;;;11.15;4.50;;;;;;;20.82;100.00;102303.72;5060614;28;20080;-73
2022/08/09 07:19:15;;;;;;;15.55;4.70;;;;;;;20.96;100.00;102303.50;5058823;28;20823;-74
2022/08/09 07:21:50;;;;;;;13.13;4.40;;;;;;;21.06;100.00;102299.69;5060214;28;20049;-74
2022/08/09 07:24:29;;;;;;;12.02;5.50;;;;;;;21.16;100.00;102304.31;5066152;28;20666;-72
2022/08/09 07:27:06;;;;;;;12.85;4.93;;;;;;;21.22;100.00;102301.78;5056763;28;20041;-76
2022/08/09 07:29:56;;;;;;;12.80;4.90;;;;;;;21.33;100.00;102300.34;5063707;28;20055;-71
2022/08/09 07:32:24;;;;;;;12.07;5.05;;;;;;;21.45;100.00;102298.91;5058487;28;20051;-73
2022/08/09 07:35:08;;;;;;;12.52;4.88;;;;;;;21.58;99.21;102303.47;5065363;28;20052;-73
2022/08/09 07:37:41;;;;;;;13.00;4.55;;;;;;;21.71;98.16;102300.75;5066034;28;20041;-72
2022/08/09 07:40:18;;;;;;;12.23;4.55;;;;;;;21.80;97.48;102303.81;5058716;28;20524;-73
2022/08/09 07:42:57;;;;;;;11.98;5.32;;;;;;;21.89;95.64;102306.81;5061119;28;20095;-71
2022/08/09 07:45:26;;;;;;;15.13;4.85;;;;;;;21.95;95.17;102293.78;5065319;28;20127;-72
2022/08/09 07:48:04;;;;;;;9.70;4.78;;;;;;;22.08;94.91;102301.13;5067151;28;20054;-72
2022/08/09 07:50:30;;;;;;;10.23;4.50;;;;;;;22.18;92.96;102296.47;5062799;28;20059;-70
2022/08/09 07:53:02;;;;;;;12.20;4.45;;;;;;;22.26;91.75;102303.50;5066466;28;20535;-77
2022/08/09 07:55:30;;;;;;;11.95;5.43;;;;;;;22.31;91.71;102300.19;5060807;28;20586;-71
2022/08/09 07:58:17;;;;;;;14.55;4.63;;;;;;;22.43;90.87;102296.66;5060267;28;20059;-71
2022/08/09 08:00:47;;;;;;;12.27;4.82;;;;;;;22.54;90.61;102305.66;5059954;28;20175;-72
2022/08/09 08:03:32;;;;;;;10.52;4.70;;;;;;;22.60;89.69;102306.72;5065761;28;20064;-72
2022/08/09 08:06:03;;;;;;;10.70;5.05;;;;;;;22.66;88.39;102304.94;5060591;28;20052;-69
2022/08/09 08:08:31;;;;;;;12.57;4.60;;;;;;;22.76;87.57;102306.72;5069480;28;20044;-71
2022/08/09 08:11:17;;;;;;;14.68;4.53;;;;;;;22.88;85.78;102305.97;5065694;28;20059;-72
2022/08/09 08:14:04;;;;;;;13.65;4.75;;;;;;;22.98;85.29;102312.56;5061804;28;20404;-69
2022/08/09 08:16:32;;;;;;;9.98;3.88;;;;;;;23.03;82.45;102309.19;5061257;28;20051;-70
2022/08/09 08:19:00;;;;;;;11.55;4.32;;;;;;;23.13;82.27;102310.94;5055636;28;20090;-71
2022/08/09 08:21:30;;;;;;;11.27;3.88;;;;;;;23.23;82.14;102313.50;5058851;28;20071;-68
2022/08/09 08:23:56;;;;;;;8.65;4.13;;;;;;;23.30;81.20;102324.59;5053775;28;20045;-70
2022/08/09 08:26:27;;;;;;;13.57;4.30;;;;;;;23.41;80.88;102315.81;5064368;28;20782;-69
2022/08/09 08:29:18;;;;;;;11.55;4.47;;;;;;;23.51;79.82;102309.84;5059992;28;20531;-71
2022/08/09 08:31:54;;;;;;;10.98;5.07;;;;;;;23.56;78.37;102303.66;5061428;28;20037;-71
2022/08/09 08:34:32;;;;;;;11.57;4.28;;;;;;;23.65;76.68;102300.19;5060193;28;20095;-71
2022/08/09 08:37:00;;;;;;;9.27;4.18;;;;;;;23.69;77.05;102312.94;5064385;28;20146;-72
2022/08/09 08:39:27;;;;;;;11.00;4.38;;;;;;;23.75;76.77;102311.13;5067166;28;20048;-71
2022/08/09 08:41:54;;;;;;;10.27;3.85;;;;;;;23.92;77.04;102309.81;5061487;28;20056;-70
2022/08/09 08:44:27;;;;;;;9.85;3.80;;;;;;;24.05;75.01;102321.13;5062849;28;20109;-69
2022/08/09 08:46:57;;;;;;;10.70;4.00;;;;;;;24.17;74.68;102312.66;5067830;28;20542;-69
2022/08/09 08:49:33;;;;;;;7.57;3.25;;;;;;;24.28;72.33;102307.47;5063561;28;20049;-69
2022/08/09 08:52:15;;;;;;;7.93;2.95;;;;;;;24.30;71.05;102310.63;5064053;28;20080;-71
2022/08/09 08:55:05;;;;;;;11.45;4.38;;;;;;;24.36;71.03;102319.31;5066815;28;20048;-74
2022/08/09 08:57:32;;;;;;;10.73;4.15;;;;;;;24.42;70.98;102315.47;5062470;28;20049;-71
2022/08/09 09:00:02;;;;;;;12.80;4.40;;;;;;;24.47;70.05;102316.94;5067547;28;20439;-70
2022/08/09 09:02:48;;;;;;;9.82;3.70;;;;;;;24.56;68.31;102302.88;5069456;28;20139;-71
2022/08/09 09:05:22;;;;;;;9.68;3.90;;;;;;;24.64;67.30;102304.25;5062708;28;20048;-71
2022/08/09 09:08:12;;;;;;;9.05;3.88;;;;;;;24.78;67.33;102296.06;5069394;28;20044;-69
2022/08/09 09:11:01;;;;;;;10.55;4.47;;;;;;;24.91;66.80;102305.28;5067509;28;20145;-71
2022/08/09 09:13:30;;;;;;;11.88;3.75;;;;;;;24.92;66.10;102301.22;5058442;28;20394;-67
2022/08/09 09:16:17;;;;;;;10.60;4.47;;;;;;;25.02;66.41;102300.06;5066099;28;20428;-70
2022/08/09 09:18:55;;;;;;;12.40;4.05;;;;;;;25.14;66.29;102304.88;5068785;28;20440;-71
2022/08/09 09:22:20;;;;;;;8.48;2.95;;;;;;;25.32;63.92;102311.94;5058900;28;21425;-70
2022/08/09 09:24:55;;;;;;;11.20;3.92;;;;;;;25.41;63.29;102307.13;5065113;28;20083;-69
2022/08/09 09:27:41;;;;;;;10.32;3.83;;;;;;;25.54;63.04;102309.91;5065094;28;20048;-66
2022/08/09 09:30:28;;;;;;;7.82;3.47;;;;;;;25.70;61.94;102312.50;5066838;28;20087;-71
2022/08/09 09:33:12;;;;;;;8.38;3.50;;;;;;;25.76;60.75;102319.97;5062328;28;20076;-72
2022/08/09 09:36:06;;;;;;;9.38;3.65;;;;;;;25.81;58.14;102321.41;5065305;28;20045;-70
2022/08/09 09:38:56;;;;;;;7.28;3.42;;;;;;;25.99;58.01;102313.81;5068416;28;20056;-69
2022/08/09 09:41:26;;;;;;;9.98;3.53;;;;;;;26.08;58.08;102313.84;5058538;28;20044;-70
2022/08/09 09:44:03;;;;;;;8.25;3.40;;;;;;;26.18;56.43;102317.50;5057407;28;20075;-70
2022/08/09 09:46:42;;;;;;;9.63;3.75;;;;;;;26.21;55.47;102313.72;5067670;28;20102;-72
2022/08/09 09:49:23;;;;;;;9.32;2.83;;;;;;;26.29;55.24;102320.72;5062421;28;20135;-71
2022/08/09 09:52:11;;;;;;;5.97;3.30;;;;;;;26.40;52.58;102315.38;5065128;28;20052;-70
2022/08/09 09:55:08;;;;;;;6.45;3.40;;;;;;;26.33;51.46;102315.69;5068650;28;20052;-70
2022/08/09 09:57:59;;;;;;;8.45;3.08;;;;;;;26.52;52.23;102323.00;5061386;28;20056;-71
2022/08/09 10:00:46;;;;;;;7.18;4.00;;;;;;;26.67;52.10;102309.78;5067963;28;20064;-68
2022/08/09 10:03:56;;;;;;;6.10;3.40;;;;;;;26.81;49.13;102312.00;5061129;28;20507;-71
2022/08/09 10:06:29;;;;;;;10.60;3.80;;;;;;;27.02;51.08;102314.72;5047400;28;20120;-69
2022/08/09 10:09:00;;;;;;;7.70;3.58;;;;;;;27.22;50.21;102305.72;5057046;28;20140;-72
2022/08/09 10:11:39;;;;;;;7.20;2.75;;;;;;;27.24;49.42;102309.66;5062023;28;20131;-75
2022/08/09 10:14:27;;;;;;;7.72;3.63;;;;;;;27.27;49.36;102316.47;5068174;28;20505;-69
2022/08/09 10:17:08;;;;;;;7.25;3.78;;;;;;;27.39;49.32;102309.81;5070028;28;20070;-70
2022/08/09 10:19:54;;;;;;;;;;;;;;;27.48;46.79;102309.81;5070914;28;20060;-73
2022/08/09 10:22:33;;;;;;;10.52;3.88;;;;;;;27.58;46.65;102314.22;5081572;28;19928;-73
2022/08/09 10:25:06;;;;;;;7.22;3.42;;;;;;;27.73;47.53;102311.50;5071185;28;20423;-73
2022/08/09 10:27:44;;;;;;;8.68;3.83;;;;;;;27.83;46.98;102301.66;5063918;28;20585;-72
2022/08/09 10:30:26;;;;;;;10.18;3.25;;;;;;;27.90;46.61;102307.06;5070713;28;20059;-72
2022/08/09 10:33:14;;;;;;;7.50;3.38;;;;;;;27.92;45.31;102311.00;5064399;28;20048;-72
2022/08/09 10:36:03;;;;;;;8.32;3.58;;;;;;;28.00;46.08;102305.75;5065785;28;20044;-72
2022/08/09 10:38:30;;;;;;;5.82;3.00;;;;;;;28.05;45.06;102307.94;5069094;28;20048;-73
2022/08/09 10:41:17;;;;;;;5.60;3.00;;;;;;;28.10;45.07;102302.38;5057047;28;20467;-72
2022/08/09 10:43:48;;;;;;;8.68;3.58;;;;;;;28.29;45.78;102303.06;5063154;28;20072;-71
2022/08/09 10:46:43;;;;;;;7.35;2.95;;;;;;;28.30;44.46;102302.59;5064835;28;20728;-68
2022/08/09 10:49:41;;;;;;;7.88;3.20;;;;;;;28.49;43.68;102303.31;5060689;28;20059;-71
2022/08/09 10:52:32;;;;;;;6.60;3.05;;;;;;;28.68;43.69;102299.84;5066500;28;20055;-71
2022/08/09 10:55:18;;;;;;;7.13;3.53;;;;;;;28.71;42.40;102304.56;5061562;28;20045;-70
2022/08/09 10:57:45;;;;;;;6.43;2.90;;;;;;;28.80;41.73;102298.03;5064772;28;20144;-70
2022/08/09 11:00:38;;;;;;;7.57;3.47;;;;;;;28.84;41.33;102290.88;5064492;28;20048;-71
2022/08/09 11:03:25;;;;;;;7.15;3.30;;;;;;;28.97;42.04;102293.44;5061865;28;20044;-72
2022/08/09 11:06:14;;;;;;;10.68;3.13;;;;;;;29.05;42.40;102298.31;5065438;28;20056;-73
2022/08/09 11:08:43;;;;;;;5.90;3.20;;;;;;;29.10;41.52;102291.94;5067949;28;20052;-70
2022/08/09 11:11:22;;;;;;;5.32;2.80;;;;;;;29.07;39.81;102286.44;5067679;28;20060;-71
2022/08/09 11:14:26;;;;;;;8.55;3.55;;;;;;;29.23;40.21;102286.75;5067147;28;20048;-73
2022/08/09 11:16:55;;;;;;;10.07;3.17;;;;;;;29.38;40.88;102281.06;5062394;28;20040;-74
2022/08/09 11:19:50;;;;;;;7.85;3.33;;;;;;;29.49;40.06;102282.03;5063992;28;20095;-73
2022/08/09 11:22:39;;;;;;;8.38;3.67;;;;;;;29.72;40.11;102279.63;5068134;28;20048;-73
2022/08/09 11:25:16;;;;;;;8.75;3.22;;;;;;;29.74;39.49;102290.03;5068284;28;20060;-73
2022/08/09 11:27:45;;;;;;;14.70;4.10;;;;;;;29.93;39.54;102289.81;5063247;28;20048;-71
2022/08/09 11:30:34;;;;;;;7.15;3.08;;;;;;;30.03;38.95;102285.56;5061992;28;20178;-72
2022/08/09 11:33:18;;;;;;;8.57;3.78;;;;;;;30.21;38.69;102285.34;5059846;28;20076;-72
2022/08/09 11:35:56;;;;;;;9.23;3.30;;;;;;;30.13;37.59;102279.22;5064726;28;20131;-71
2022/08/09 11:38:24;;;;;;;9.35;3.63;;;;;;;30.21;37.90;102279.66;5067760;28;20056;-77
2022/08/09 11:41:29;;;;;;;7.40;3.17;;;;;;;30.22;37.31;102278.34;5061022;28;20098;-76
2022/08/09 11:44:06;;;;;;;7.93;3.90;;;;;;;30.23;37.34;102268.53;5061882;28;20045;-74
2022/08/09 11:46:53;;;;;;;10.35;3.20;;;;;;;30.28;37.22;102273.50;5065752;28;20048;-79
2022/08/09 11:49:58;;;;;;;8.95;3.03;;;;;;;30.32;36.42;102266.31;5064341;28;20045;-75
2022/08/09 11:53:00;;;;;;;8.75;3.03;;;;;;;30.35;36.42;102268.19;5062927;28;20051;-75
2022/08/09 11:55:48;;;;;;;7.43;3.15;;;;;;;30.32;37.33;102260.59;5063236;28;20052;-73
2022/08/09 11:58:29;;;;;;;7.60;3.33;;;;;;;30.51;37.03;102259.06;5065885;28;20505;-74
2022/08/09 12:01:10;;;;;;;5.82;2.65;;;;;;;30.63;36.85;102263.59;5058396;28;20059;-75
2022/08/09 12:04:05;;;;;;;11.13;2.70;;;;;;;30.73;36.68;102249.97;5059199;28;20045;-71